createdAt,value
2023-03-18T00:01:40.614Z,0.95
2023-03-18T00:04:09.789Z,0.93
2023-03-18T00:06:39.055Z,0.90
2023-03-18T00:09:07.069Z,0.85
2023-03-18T00:11:35.345Z,1.20
2023-03-18T00:14:03.212Z,0.80
2023-03-18T00:16:30.845Z,0.55
2023-03-18T00:18:58.417Z,0.85
2023-03-18T00:21:28.076Z,0.85
2023-03-18T00:23:56.574Z,1.27
2023-03-18T00:26:24.989Z,0.60
2023-03-18T00:28:52.610Z,1.45
2023-03-18T00:31:20.913Z,0.70
2023-03-18T00:33:50.316Z,1.20
2023-03-18T00:36:18.472Z,1.08
2023-03-18T00:38:51.005Z,1.00
2023-03-18T00:41:18.749Z,0.80
2023-03-18T00:43:52.294Z,0.47
2023-03-18T00:46:22.118Z,1.27
2023-03-18T00:48:50.196Z,1.08
2023-03-18T00:51:18.435Z,0.98
2023-03-18T00:53:48.510Z,0.30
2023-03-18T00:56:16.846Z,1.25
2023-03-18T00:58:45.215Z,1.52
2023-03-18T01:01:13.651Z,1.13
2023-03-18T01:03:42.948Z,0.80
2023-03-18T01:06:11.454Z,1.17
2023-03-18T01:08:39.598Z,0.88
2023-03-18T01:11:10.602Z,0.75
2023-03-18T01:13:39.219Z,1.25
2023-03-18T01:16:07.817Z,1.20
2023-03-18T01:18:36.442Z,0.70
2023-03-18T01:21:04.783Z,1.00
2023-03-18T01:23:37.524Z,1.13
2023-03-18T01:26:05.938Z,1.35
2023-03-18T01:28:35.751Z,0.85
2023-03-18T01:31:04.648Z,1.05
2023-03-18T01:33:33.271Z,1.05
2023-03-18T01:36:02.311Z,0.45
2023-03-18T01:38:31.791Z,0.75
2023-03-18T01:41:08.776Z,0.80
2023-03-18T01:43:38.997Z,0.90
2023-03-18T01:46:22.110Z,1.20
2023-03-18T01:48:52.062Z,1.40
2023-03-18T01:51:20.831Z,1.23
2023-03-18T01:53:49.506Z,1.10
2023-03-18T01:56:17.969Z,0.75
2023-03-18T01:58:48.809Z,1.30
2023-03-18T02:01:20.107Z,1.20
2023-03-18T02:03:49.780Z,0.80
2023-03-18T02:06:17.847Z,1.23
2023-03-18T02:08:51.522Z,1.00
2023-03-18T02:11:19.773Z,0.63
2023-03-18T02:13:50.496Z,1.08
2023-03-18T02:16:20.674Z,0.70
2023-03-18T02:18:50.343Z,0.82
2023-03-18T02:21:24.988Z,1.10
2023-03-18T02:23:59.113Z,0.95
2023-03-18T02:26:31.372Z,1.20
2023-03-18T02:29:04.683Z,0.75
2023-03-18T02:31:41.683Z,0.95
2023-03-18T02:34:10.501Z,1.10
2023-03-18T02:36:39.438Z,0.80
2023-03-18T02:39:13.399Z,1.08
2023-03-18T02:41:41.101Z,0.90
2023-03-18T02:44:11.062Z,0.73
2023-03-18T02:46:53.948Z,0.88
2023-03-18T02:49:21.976Z,1.35
2023-03-18T02:51:50.398Z,0.95
2023-03-18T02:54:19.576Z,1.13
2023-03-18T02:56:47.626Z,0.95
2023-03-18T02:59:17.029Z,0.82
2023-03-18T03:01:45.817Z,0.57
2023-03-18T03:04:14.016Z,1.00
2023-03-18T03:06:42.738Z,0.85
2023-03-18T03:09:13.461Z,0.98
2023-03-18T03:11:41.898Z,1.40
2023-03-18T03:14:16.427Z,0.98
2023-03-18T03:16:46.572Z,1.10
2023-03-18T03:19:14.135Z,1.02
2023-03-18T03:21:42.341Z,0.90
2023-03-18T03:24:09.988Z,1.15
2023-03-18T03:26:40.403Z,1.13
2023-03-18T03:29:08.021Z,0.88
2023-03-18T03:31:36.967Z,1.08
2023-03-18T03:34:06.600Z,1.35
2023-03-18T03:36:34.241Z,1.30
2023-03-18T03:39:02.272Z,1.27
2023-03-18T03:41:29.851Z,1.17
2023-03-18T03:43:57.540Z,1.08
2023-03-18T03:46:25.245Z,1.10
2023-03-18T03:48:54.290Z,1.17
2023-03-18T03:51:22.423Z,1.00
2023-03-18T03:53:50.810Z,0.82
2023-03-18T03:56:18.482Z,0.60
2023-03-18T03:58:46.866Z,1.13
2023-03-18T04:01:14.837Z,0.80
2023-03-18T04:03:44.540Z,0.90
2023-03-18T04:06:14.176Z,0.98
2023-03-18T04:08:48.949Z,1.10
2023-03-18T04:11:16.570Z,1.15
2023-03-18T04:13:44.742Z,1.52
2023-03-18T04:16:12.389Z,1.17
2023-03-18T04:18:39.999Z,1.30
2023-03-18T04:21:08.594Z,0.98
2023-03-18T04:23:51.902Z,1.15
2023-03-18T04:26:19.722Z,0.95
2023-03-18T04:28:47.785Z,1.20
2023-03-18T04:31:17.183Z,0.85
2023-03-18T04:33:44.936Z,1.33
2023-03-18T04:36:12.807Z,1.00
2023-03-18T04:38:40.484Z,1.38
2023-03-18T04:41:09.881Z,1.08
2023-03-18T04:43:38.816Z,1.05
2023-03-18T04:46:07.107Z,0.80
2023-03-18T04:48:35.883Z,0.95
2023-03-18T04:51:05.757Z,1.60
2023-03-18T04:53:34.666Z,0.80
2023-03-18T04:56:02.512Z,0.90
2023-03-18T04:58:40.092Z,0.90
2023-03-18T05:01:13.159Z,1.15
2023-03-18T05:03:41.237Z,0.95
2023-03-18T05:06:11.080Z,1.15
2023-03-18T05:08:52.014Z,1.08
2023-03-18T05:11:19.823Z,1.05
2023-03-18T05:13:49.062Z,0.60
2023-03-18T05:16:19.024Z,0.85
2023-03-18T05:18:48.932Z,1.10
2023-03-18T05:21:17.108Z,1.05
2023-03-18T05:23:45.361Z,0.73
2023-03-18T05:26:13.133Z,1.10
2023-03-18T05:28:43.975Z,0.85
2023-03-18T05:31:32.962Z,0.70
2023-03-18T05:34:02.014Z,1.00
2023-03-18T05:36:34.526Z,1.00
2023-03-18T05:39:06.523Z,1.02
2023-03-18T05:41:34.116Z,0.93
2023-03-18T05:44:01.987Z,0.80
2023-03-18T05:46:33.468Z,0.88
2023-03-18T05:49:14.475Z,0.88
2023-03-18T05:51:55.049Z,0.63
2023-03-18T05:54:34.537Z,0.82
2023-03-18T05:57:02.620Z,1.00
2023-03-18T05:59:31.461Z,1.05
2023-03-18T06:02:02.542Z,1.10
2023-03-18T06:04:31.119Z,1.17
2023-03-18T06:06:58.860Z,0.63
2023-03-18T06:09:27.276Z,1.33
2023-03-18T06:11:55.222Z,0.73
2023-03-18T06:14:22.935Z,1.13
2023-03-18T06:16:51.577Z,0.85
2023-03-18T06:19:23.417Z,1.58
2023-03-18T06:21:53.085Z,0.90
2023-03-18T06:24:21.154Z,1.33
2023-03-18T06:26:49.437Z,0.55
2023-03-18T06:29:20.044Z,1.40
2023-03-18T06:31:47.679Z,0.95
2023-03-18T06:34:21.438Z,1.23
2023-03-18T06:36:50.944Z,1.80
2023-03-18T06:39:20.851Z,1.00
2023-03-18T06:41:48.856Z,1.25
2023-03-18T06:44:42.091Z,0.85
2023-03-18T06:47:29.972Z,1.10
2023-03-18T06:49:59.053Z,0.93
2023-03-18T06:52:34.484Z,0.82
2023-03-18T06:55:10.246Z,1.20
2023-03-18T06:57:41.518Z,1.00
2023-03-18T07:00:10.761Z,0.65
2023-03-18T07:02:39.727Z,0.73
2023-03-18T07:05:09.907Z,0.80
2023-03-18T07:07:39.207Z,0.70
2023-03-18T07:10:07.488Z,1.13
2023-03-18T07:12:35.946Z,0.60
2023-03-18T07:15:03.976Z,0.80
2023-03-18T07:17:31.708Z,0.68
2023-03-18T07:19:59.312Z,0.95
2023-03-18T07:22:26.973Z,0.77
2023-03-18T07:24:56.501Z,0.80
2023-03-18T07:27:24.337Z,1.65
2023-03-18T07:29:52.606Z,0.57
2023-03-18T07:32:20.936Z,0.80
2023-03-18T07:34:48.682Z,0.82
2023-03-18T07:37:16.839Z,0.80
2023-03-18T07:39:44.535Z,0.90
2023-03-18T07:42:13.625Z,0.90
2023-03-18T07:44:46.473Z,0.75
2023-03-18T07:47:15.306Z,0.98
2023-03-18T07:49:42.918Z,0.82
2023-03-18T07:52:11.003Z,1.20
2023-03-18T07:54:38.670Z,0.77
2023-03-18T07:57:06.858Z,1.27
2023-03-18T07:59:36.566Z,0.85
2023-03-18T08:02:04.860Z,0.93
2023-03-18T08:04:32.747Z,1.00
2023-03-18T08:07:00.449Z,0.80
2023-03-18T08:09:28.547Z,0.50
2023-03-18T08:11:56.195Z,0.90
2023-03-18T08:14:23.751Z,0.70
2023-03-18T08:16:52.828Z,0.98
2023-03-18T08:19:21.451Z,0.98
2023-03-18T08:21:49.118Z,0.65
2023-03-18T08:24:17.302Z,1.05
2023-03-18T08:26:45.249Z,0.98
2023-03-18T08:29:12.855Z,0.75
2023-03-18T08:31:40.489Z,1.08
2023-03-18T08:34:10.550Z,0.88
2023-03-18T08:36:38.158Z,1.17
2023-03-18T08:39:05.876Z,0.88
2023-03-18T08:41:33.586Z,1.15
2023-03-18T08:44:02.571Z,0.60
2023-03-18T08:46:30.661Z,0.82
2023-03-18T08:49:00.641Z,0.70
2023-03-18T08:51:29.816Z,0.80
2023-03-18T08:53:57.456Z,0.90
2023-03-18T08:56:25.156Z,0.90
2023-03-18T08:58:52.732Z,0.85
2023-03-18T09:01:21.960Z,0.75
2023-03-18T09:03:49.778Z,1.00
2023-03-18T09:06:17.824Z,1.10
2023-03-18T09:08:46.750Z,0.98
2023-03-18T09:11:14.640Z,1.20
2023-03-18T09:13:42.192Z,0.85
2023-03-18T09:16:10.721Z,1.08
2023-03-18T09:18:39.468Z,0.82
2023-03-18T09:21:07.265Z,1.10
2023-03-18T09:23:35.401Z,0.90
2023-03-18T09:26:04.824Z,0.90
2023-03-18T09:28:32.473Z,1.05
2023-03-18T09:31:00.137Z,1.00
2023-03-18T09:33:27.780Z,0.80
2023-03-18T09:35:55.394Z,1.00
2023-03-18T09:38:23.135Z,1.05
2023-03-18T09:40:56.257Z,0.90
2023-03-18T09:43:38.785Z,1.20
2023-03-18T09:46:11.305Z,1.10
2023-03-18T09:48:48.810Z,0.95
2023-03-18T09:51:21.703Z,1.05
2023-03-18T09:53:52.119Z,0.85
2023-03-18T09:56:22.260Z,0.82
2023-03-18T09:58:53.785Z,0.60
2023-03-18T10:01:23.826Z,0.88
2023-03-18T10:03:52.825Z,0.93
2023-03-18T10:06:21.119Z,0.55
2023-03-18T10:08:53.720Z,0.80
2023-03-18T10:11:26.918Z,0.80
2023-03-18T10:14:16.592Z,0.68
2023-03-18T10:16:49.820Z,0.63
2023-03-18T10:19:17.490Z,0.80
2023-03-18T10:21:47.987Z,0.70
2023-03-18T10:24:21.627Z,1.00
2023-03-18T10:26:50.190Z,0.68
2023-03-18T10:29:27.581Z,0.38
2023-03-18T10:32:03.797Z,0.70
2023-03-18T10:34:34.955Z,0.57
2023-03-18T10:37:06.243Z,0.63
2023-03-18T10:39:35.456Z,0.70
2023-03-18T10:42:08.508Z,0.55
2023-03-18T10:44:38.458Z,0.60
2023-03-18T10:47:13.400Z,0.70
2023-03-18T10:49:43.418Z,0.80
2023-03-18T10:52:15.291Z,0.75
2023-03-18T10:54:43.932Z,0.52
2023-03-18T10:57:14.110Z,0.95
2023-03-18T10:59:44.627Z,1.48
2023-03-18T11:02:17.074Z,0.50
2023-03-18T11:04:48.566Z,0.60
2023-03-18T11:07:18.916Z,0.50
2023-03-18T11:09:46.523Z,0.40
2023-03-18T11:12:19.343Z,1.10
2023-03-18T11:14:50.486Z,0.70
2023-03-18T11:17:23.294Z,1.02
2023-03-18T11:20:00.732Z,0.68
2023-03-18T11:22:28.954Z,0.85
2023-03-18T11:25:03.495Z,0.82
2023-03-18T11:27:36.396Z,0.70
2023-03-18T11:30:07.863Z,0.80
2023-03-18T11:32:37.990Z,0.93
2023-03-18T11:35:06.349Z,0.80
2023-03-18T11:37:35.110Z,1.00
2023-03-18T11:40:18.388Z,0.73
2023-03-18T11:42:46.754Z,0.93
2023-03-18T11:45:29.629Z,1.10
2023-03-18T11:47:59.112Z,0.80
2023-03-18T11:50:31.561Z,1.10
2023-03-18T11:53:01.247Z,1.05
2023-03-18T11:55:35.821Z,1.17
2023-03-18T11:58:21.211Z,1.27
2023-03-18T12:00:52.580Z,1.17
2023-03-18T12:03:32.992Z,1.00
2023-03-18T12:06:05.377Z,1.15
2023-03-18T12:08:44.991Z,1.10
2023-03-18T12:11:14.709Z,1.23
2023-03-18T12:13:49.321Z,0.98
2023-03-18T12:16:21.000Z,1.27
2023-03-18T12:19:00.598Z,1.08
2023-03-18T12:21:37.408Z,1.42
2023-03-18T12:24:12.301Z,1.00
2023-03-18T12:26:45.896Z,1.10
2023-03-18T12:29:26.615Z,1.10
2023-03-18T12:32:02.217Z,1.20
2023-03-18T12:34:42.191Z,1.50
2023-03-18T12:37:16.008Z,1.10
2023-03-18T12:39:58.574Z,1.30
2023-03-18T12:42:32.072Z,1.08
2023-03-18T12:45:00.903Z,1.15
2023-03-18T12:47:32.785Z,1.05
2023-03-18T12:50:04.407Z,0.90
2023-03-18T12:52:35.808Z,0.90
2023-03-18T12:55:06.783Z,0.90
2023-03-18T12:57:39.098Z,0.90
2023-03-18T13:00:10.506Z,1.05
2023-03-18T13:02:41.474Z,0.82
2023-03-18T13:05:16.878Z,0.98
2023-03-18T13:07:46.185Z,0.95
2023-03-18T13:10:20.430Z,1.00
2023-03-18T13:12:48.785Z,1.00
2023-03-18T13:15:21.015Z,2.28
2023-03-18T13:17:50.190Z,1.40
2023-03-18T13:20:22.072Z,1.45
2023-03-18T13:23:04.986Z,1.40
2023-03-18T13:25:37.900Z,1.48
2023-03-18T13:28:25.359Z,1.10
2023-03-18T13:30:57.590Z,1.20
2023-03-18T13:33:41.272Z,1.15
2023-03-18T13:36:28.784Z,1.02
2023-03-18T13:39:23.554Z,1.10
2023-03-18T13:42:07.975Z,1.13
2023-03-18T13:44:38.298Z,1.10
2023-03-18T13:47:07.461Z,1.38
2023-03-18T13:49:36.940Z,1.05
2023-03-18T13:52:23.037Z,1.50
2023-03-18T13:54:51.568Z,1.38
2023-03-18T13:57:32.372Z,1.20
2023-03-18T14:00:14.790Z,1.48
2023-03-18T14:02:45.496Z,1.38
2023-03-18T14:05:28.031Z,1.30
2023-03-18T14:07:56.990Z,1.50
2023-03-18T14:10:25.107Z,1.73
2023-03-18T14:12:52.730Z,1.30
2023-03-18T14:15:39.015Z,2.08
2023-03-18T14:18:19.338Z,1.58
2023-03-18T14:20:47.804Z,2.15
2023-03-18T14:23:37.037Z,2.25
2023-03-18T14:26:05.955Z,2.10
2023-03-18T14:28:40.159Z,1.85
2023-03-18T14:31:16.021Z,2.25
2023-03-18T14:33:58.273Z,1.50
2023-03-18T14:36:40.573Z,1.30
2023-03-18T14:39:12.003Z,2.05
2023-03-18T14:41:42.312Z,1.52
2023-03-18T14:44:17.328Z,1.73
2023-03-18T14:46:46.695Z,1.77
2023-03-18T14:49:33.827Z,1.80
2023-03-18T14:52:01.869Z,1.52
2023-03-18T14:54:33.680Z,2.00
2023-03-18T14:57:04.123Z,1.77
2023-03-18T14:59:32.096Z,1.73
2023-03-18T15:01:59.788Z,1.52
2023-03-18T15:04:28.246Z,1.52
2023-03-18T15:06:59.014Z,1.58
2023-03-18T15:09:27.759Z,1.25
2023-03-18T15:11:57.673Z,1.50
2023-03-18T15:14:26.010Z,1.42
2023-03-18T15:16:53.782Z,1.35
2023-03-18T15:19:21.879Z,1.45
2023-03-18T15:21:49.538Z,1.05
2023-03-18T15:24:19.890Z,1.40
2023-03-18T15:26:56.360Z,1.45
2023-03-18T15:29:29.550Z,1.35
2023-03-18T15:32:10.062Z,1.17
2023-03-18T15:34:39.148Z,1.50
2023-03-18T15:37:23.328Z,1.27
2023-03-18T15:39:55.667Z,1.35
2023-03-18T15:42:23.806Z,1.55
2023-03-18T15:44:55.838Z,1.20
2023-03-18T15:47:26.315Z,1.10
2023-03-18T15:49:55.158Z,1.30
2023-03-18T15:52:25.035Z,1.52
2023-03-18T15:54:53.412Z,1.55
2023-03-18T15:57:26.651Z,1.00
2023-03-18T15:59:55.631Z,1.63
2023-03-18T16:02:23.612Z,1.40
2023-03-18T16:04:51.212Z,1.35
2023-03-18T16:07:21.485Z,1.63
2023-03-18T16:09:51.075Z,1.52
2023-03-18T16:12:20.034Z,1.30
2023-03-18T16:14:50.220Z,1.15
2023-03-18T16:17:21.799Z,1.25
2023-03-18T16:19:54.271Z,1.35
2023-03-18T16:22:22.385Z,1.10
2023-03-18T16:24:50.266Z,1.17
2023-03-18T16:27:29.529Z,1.23
2023-03-18T16:29:57.171Z,1.05
2023-03-18T16:32:26.226Z,1.10
2023-03-18T16:34:53.806Z,1.52
2023-03-18T16:37:23.695Z,1.33
2023-03-18T16:39:51.498Z,1.63
2023-03-18T16:42:19.076Z,1.50
2023-03-18T16:44:46.641Z,1.33
2023-03-18T16:47:20.246Z,1.13
2023-03-18T16:49:49.739Z,1.23
2023-03-18T16:52:18.062Z,1.45
2023-03-18T16:54:46.144Z,1.33
2023-03-18T16:57:17.661Z,1.10
2023-03-18T16:59:47.899Z,1.10
2023-03-18T17:02:25.075Z,1.35
2023-03-18T17:04:54.241Z,0.82
2023-03-18T17:07:22.290Z,1.10
2023-03-18T17:09:50.503Z,1.13
2023-03-18T17:12:18.113Z,1.00
2023-03-18T17:14:52.848Z,0.80
2023-03-18T17:17:23.527Z,1.00
2023-03-18T17:19:51.169Z,0.93
2023-03-18T17:22:22.524Z,1.17
2023-03-18T17:24:50.606Z,1.10
2023-03-18T17:27:19.122Z,1.08
2023-03-18T17:29:46.925Z,1.05
2023-03-18T17:32:16.618Z,1.00
2023-03-18T17:34:44.541Z,1.10
2023-03-18T17:37:12.124Z,1.13
2023-03-18T17:39:41.162Z,0.85
2023-03-18T17:42:16.451Z,1.10
2023-03-18T17:44:44.032Z,0.98
2023-03-18T17:47:11.648Z,0.90
2023-03-18T17:49:40.060Z,1.05
2023-03-18T17:52:07.715Z,1.02
2023-03-18T17:54:36.035Z,1.00
2023-03-18T17:57:05.581Z,1.20
2023-03-18T17:59:33.231Z,0.98
2023-03-18T18:02:00.893Z,0.93
2023-03-18T18:04:29.604Z,1.00
2023-03-18T18:06:57.193Z,1.02
2023-03-18T18:09:24.836Z,1.00
2023-03-18T18:11:52.431Z,0.75
2023-03-18T18:14:23.504Z,1.00
2023-03-18T18:16:51.528Z,0.68
2023-03-18T18:19:19.455Z,0.95
2023-03-18T18:21:47.806Z,0.98
2023-03-18T18:24:18.619Z,0.88
2023-03-18T18:26:46.555Z,0.80
2023-03-18T18:29:16.328Z,0.65
2023-03-18T18:31:45.242Z,0.80
2023-03-18T18:34:13.282Z,0.70
2023-03-18T18:36:41.085Z,0.57
2023-03-18T18:39:09.243Z,0.80
2023-03-18T18:41:36.856Z,0.80
2023-03-18T18:44:04.421Z,0.70
2023-03-18T18:46:32.109Z,0.90
2023-03-18T18:49:01.344Z,1.00
2023-03-18T18:51:28.877Z,0.90
2023-03-18T18:53:56.806Z,0.75
2023-03-18T18:56:25.576Z,0.85
2023-03-18T18:58:53.334Z,0.75
2023-03-18T19:01:21.427Z,0.77
2023-03-18T19:03:49.773Z,0.60
2023-03-18T19:06:21.807Z,0.68
2023-03-18T19:08:49.462Z,0.80
2023-03-18T19:11:17.127Z,0.90
2023-03-18T19:13:44.914Z,0.82
2023-03-18T19:16:17.717Z,0.90
2023-03-18T19:18:45.313Z,0.80
2023-03-18T19:21:13.223Z,0.82
2023-03-18T19:23:42.165Z,0.70
2023-03-18T19:26:12.440Z,1.02
2023-03-18T19:29:01.366Z,1.00
2023-03-18T19:31:31.258Z,1.00
2023-03-18T19:33:59.665Z,1.00
2023-03-18T19:36:28.161Z,0.85
2023-03-18T19:38:58.887Z,0.90
2023-03-18T19:41:26.754Z,0.82
2023-03-18T19:43:55.400Z,0.90
2023-03-18T19:46:26.251Z,0.90
2023-03-18T19:48:53.836Z,1.00
2023-03-18T19:51:21.482Z,0.80
2023-03-18T19:53:49.192Z,0.98
2023-03-18T19:56:25.381Z,0.90
2023-03-18T19:58:53.747Z,1.02
2023-03-18T20:01:22.011Z,0.40
2023-03-18T20:03:50.529Z,0.40
2023-03-18T20:06:18.164Z,0.60
2023-03-18T20:08:46.444Z,0.75
2023-03-18T20:11:15.626Z,0.60
2023-03-18T20:13:44.558Z,0.45
2023-03-18T20:16:13.897Z,0.50
2023-03-18T20:18:41.600Z,0.30
2023-03-18T20:21:13.866Z,0.60
2023-03-18T20:23:41.573Z,0.60
2023-03-18T20:26:09.193Z,0.50
2023-03-18T20:28:40.381Z,0.70
2023-03-18T20:31:11.346Z,0.50
2023-03-18T20:33:38.964Z,0.50
2023-03-18T20:36:06.948Z,0.63
2023-03-18T20:38:36.417Z,0.40
2023-03-18T20:41:04.052Z,0.57
2023-03-18T20:43:31.631Z,0.60
2023-03-18T20:45:59.908Z,0.60
2023-03-18T20:48:28.994Z,0.32
2023-03-18T20:50:57.364Z,0.50
2023-03-18T20:53:25.925Z,0.45
2023-03-18T20:55:53.795Z,0.80
2023-03-18T20:58:22.283Z,0.63
2023-03-18T21:00:50.697Z,0.40
2023-03-18T21:03:21.413Z,0.38
2023-03-18T21:05:50.375Z,0.82
2023-03-18T21:08:18.420Z,0.63
2023-03-18T21:10:46.280Z,0.73
2023-03-18T21:13:23.761Z,0.50
2023-03-18T21:15:51.409Z,0.82
2023-03-18T21:18:18.964Z,0.60
2023-03-18T21:20:46.691Z,0.55
2023-03-18T21:23:19.880Z,0.50
2023-03-18T21:25:48.328Z,0.75
2023-03-18T21:28:16.385Z,0.60
2023-03-18T21:30:44.425Z,0.60
2023-03-18T21:33:22.841Z,0.50
2023-03-18T21:35:52.474Z,0.52
2023-03-18T21:38:21.426Z,0.68
2023-03-18T21:40:49.082Z,0.50
2023-03-18T21:43:23.812Z,0.88
2023-03-18T21:45:51.821Z,0.50
2023-03-18T21:48:19.583Z,0.82
2023-03-18T21:50:47.341Z,0.85
2023-03-18T21:53:15.395Z,0.60
2023-03-18T21:55:44.366Z,0.52
2023-03-18T21:58:14.422Z,0.60
2023-03-18T22:00:42.048Z,0.40
2023-03-18T22:03:13.508Z,0.55
2023-03-18T22:05:41.224Z,0.52
2023-03-18T22:08:08.834Z,0.40
2023-03-18T22:10:36.439Z,0.60
2023-03-18T22:13:16.313Z,0.40
2023-03-18T22:15:44.023Z,0.50
2023-03-18T22:18:11.820Z,0.57
2023-03-18T22:20:39.569Z,0.47
2023-03-18T22:23:12.941Z,0.70
2023-03-18T22:25:41.728Z,0.60
2023-03-18T22:28:11.518Z,0.65
2023-03-18T22:30:41.878Z,0.73
2023-03-18T22:33:16.640Z,0.88
2023-03-18T22:35:44.285Z,0.50
2023-03-18T22:38:14.380Z,0.28
2023-03-18T22:40:42.994Z,0.52
2023-03-18T22:43:18.246Z,0.40
2023-03-18T22:45:47.191Z,0.90
2023-03-18T22:48:17.126Z,0.55
2023-03-18T22:50:44.819Z,0.80
2023-03-18T22:53:18.154Z,0.55
2023-03-18T22:55:45.776Z,0.50
2023-03-18T22:58:17.709Z,0.98
2023-03-18T23:00:46.001Z,0.40
2023-03-18T23:03:17.611Z,0.65
2023-03-18T23:05:45.779Z,0.40
2023-03-18T23:08:13.562Z,0.43
2023-03-18T23:10:41.830Z,0.50
2023-03-18T23:13:13.977Z,0.38
2023-03-18T23:15:41.634Z,0.57
2023-03-18T23:18:12.929Z,0.40
2023-03-18T23:20:42.134Z,0.60
2023-03-18T23:23:09.733Z,0.50
2023-03-18T23:25:37.464Z,0.60
2023-03-18T23:28:05.183Z,0.45
2023-03-18T23:30:32.890Z,0.50
2023-03-18T23:33:00.498Z,0.60
2023-03-18T23:35:28.207Z,0.30
2023-03-18T23:37:57.156Z,0.30
2023-03-18T23:40:24.813Z,0.32
2023-03-18T23:42:52.438Z,0.43
2023-03-18T23:45:20.234Z,0.47
2023-03-18T23:47:47.925Z,0.20
2023-03-18T23:50:15.636Z,0.35
2023-03-18T23:52:43.209Z,0.40
2023-03-18T23:55:30.855Z,0.20
2023-03-18T23:58:00.045Z,0.65
